createdAt,value
2023-02-09T00:00:13.218Z,6.85
2023-02-09T00:02:40.652Z,6.93
2023-02-09T00:05:08.242Z,5.88
2023-02-09T00:07:35.040Z,3.30
2023-02-09T00:10:01.948Z,4.63
2023-02-09T00:12:47.431Z,7.72
2023-02-09T00:15:14.110Z,4.30
2023-02-09T00:17:40.907Z,4.22
2023-02-09T00:20:08.523Z,3.72
2023-02-09T00:22:35.245Z,5.93
2023-02-09T00:25:02.057Z,5.30
2023-02-09T00:27:29.993Z,3.55
2023-02-09T00:29:56.789Z,8.27
2023-02-09T00:32:23.488Z,8.07
2023-02-09T00:34:50.310Z,3.42
2023-02-09T00:37:17.073Z,8.23
2023-02-09T00:39:45.743Z,9.13
2023-02-09T00:42:12.524Z,14.45
2023-02-09T00:44:40.475Z,13.77
2023-02-09T00:47:08.460Z,10.20
2023-02-09T00:49:35.204Z,13.45
2023-02-09T00:52:02.453Z,9.95
2023-02-09T00:54:29.338Z,14.23
2023-02-09T00:56:56.153Z,10.68
2023-02-09T00:59:22.962Z,8.15
2023-02-09T01:01:49.716Z,18.00
2023-02-09T01:04:16.551Z,6.70
2023-02-09T01:06:43.304Z,10.95
2023-02-09T01:09:10.454Z,10.27
2023-02-09T01:11:38.704Z,3.85
2023-02-09T01:14:05.502Z,1.83
2023-02-09T01:16:32.687Z,5.43
2023-02-09T01:19:01.324Z,2.53
2023-02-09T01:21:29.435Z,3.80
2023-02-09T01:23:56.484Z,3.65
2023-02-09T01:26:23.256Z,3.08
2023-02-09T01:28:53.649Z,2.45
2023-02-09T01:31:29.745Z,2.38
2023-02-09T01:33:58.432Z,4.63
2023-02-09T01:36:27.462Z,1.35
2023-02-09T01:38:55.639Z,5.53
2023-02-09T01:41:23.020Z,4.28
2023-02-09T01:44:08.184Z,3.22
2023-02-09T01:46:36.686Z,3.53
2023-02-09T01:49:08.180Z,2.45
2023-02-09T01:51:44.350Z,5.43
2023-02-09T01:54:15.312Z,2.63
2023-02-09T01:56:46.217Z,7.38
2023-02-09T01:59:13.887Z,10.43
2023-02-09T02:01:41.427Z,8.70
2023-02-09T02:04:08.451Z,5.38
2023-02-09T02:06:36.617Z,8.88
2023-02-09T02:09:09.172Z,3.20
2023-02-09T02:11:36.004Z,12.75
2023-02-09T02:14:03.430Z,6.10
2023-02-09T02:16:42.344Z,4.90
2023-02-09T02:19:28.758Z,3.92
2023-02-09T02:22:14.661Z,2.47
2023-02-09T02:25:18.955Z,2.70
2023-02-09T02:27:49.194Z,2.35
2023-02-09T02:30:37.526Z,3.60
2023-02-09T02:33:34.473Z,2.10
2023-02-09T02:36:19.796Z,2.25
2023-02-09T02:39:14.533Z,3.42
2023-02-09T02:42:20.481Z,2.85
2023-02-09T02:44:58.711Z,5.55
2023-02-09T02:47:27.911Z,2.17
2023-02-09T02:50:01.597Z,3.83
2023-02-09T02:52:28.471Z,3.65
2023-02-09T02:55:04.114Z,2.97
2023-02-09T02:57:32.754Z,4.35
2023-02-09T03:00:06.218Z,5.70
2023-02-09T03:02:54.442Z,3.67
2023-02-09T03:05:23.079Z,5.70
2023-02-09T03:07:50.189Z,2.10
2023-02-09T03:10:43.649Z,3.30
2023-02-09T03:13:28.938Z,3.72
2023-02-09T03:15:55.658Z,3.10
2023-02-09T03:18:36.812Z,1.80
2023-02-09T03:21:08.159Z,2.42
2023-02-09T03:23:59.375Z,5.28
2023-02-09T03:26:29.791Z,3.38
2023-02-09T03:28:57.875Z,2.78
2023-02-09T03:31:25.064Z,5.18
2023-02-09T03:33:52.359Z,2.65
2023-02-09T03:36:20.646Z,6.93
2023-02-09T03:38:47.524Z,4.60
2023-02-09T03:41:14.476Z,2.33
2023-02-09T03:43:59.830Z,4.50
2023-02-09T03:46:26.748Z,2.58
2023-02-09T03:48:53.539Z,3.55
2023-02-09T03:51:20.315Z,4.50
2023-02-09T03:53:47.290Z,3.05
2023-02-09T03:56:14.049Z,3.03
2023-02-09T03:58:40.864Z,3.22
2023-02-09T04:01:09.642Z,2.47
2023-02-09T04:03:37.623Z,3.97
2023-02-09T04:06:04.773Z,1.58
2023-02-09T04:08:33.298Z,3.25
2023-02-09T04:11:00.171Z,3.38
2023-02-09T04:13:27.145Z,4.15
2023-02-09T04:15:54.081Z,12.95
2023-02-09T04:18:21.012Z,13.70
2023-02-09T04:20:48.171Z,15.20
2023-02-09T04:23:16.553Z,19.80
2023-02-09T04:25:43.500Z,19.17
2023-02-09T04:28:10.316Z,19.75
2023-02-09T04:30:37.119Z,7.05
2023-02-09T04:33:03.948Z,7.05
2023-02-09T04:35:30.735Z,6.22
2023-02-09T04:37:57.426Z,8.30
2023-02-09T04:40:24.159Z,4.82
2023-02-09T04:42:50.871Z,6.50
2023-02-09T04:45:17.748Z,4.60
2023-02-09T04:47:44.448Z,3.78
2023-02-09T04:50:11.475Z,4.70
2023-02-09T04:52:38.197Z,5.78
2023-02-09T04:55:05.439Z,2.33
2023-02-09T04:57:50.934Z,3.25
2023-02-09T05:00:17.886Z,6.15
2023-02-09T05:02:44.656Z,3.05
2023-02-09T05:05:11.442Z,2.35
2023-02-09T05:07:38.130Z,2.72
2023-02-09T05:10:07.640Z,3.90
2023-02-09T05:12:34.376Z,8.60
2023-02-09T05:15:01.168Z,3.10
2023-02-09T05:17:27.965Z,6.68
2023-02-09T05:19:54.667Z,3.38
2023-02-09T05:22:21.474Z,3.13
2023-02-09T05:24:48.146Z,1.98
2023-02-09T05:27:14.908Z,2.38
2023-02-09T05:29:42.031Z,3.67
2023-02-09T05:32:08.793Z,3.80
2023-02-09T05:34:35.556Z,3.28
2023-02-09T05:37:02.473Z,4.47
2023-02-09T05:39:29.208Z,7.10
2023-02-09T05:42:14.588Z,5.65
2023-02-09T05:44:46.441Z,10.82
2023-02-09T05:47:15.449Z,5.47
2023-02-09T05:49:42.293Z,6.57
2023-02-09T05:52:09.578Z,9.27
2023-02-09T05:54:36.499Z,7.70
2023-02-09T05:57:04.096Z,7.95
2023-02-09T05:59:30.994Z,20.48
2023-02-09T06:01:58.164Z,12.75
2023-02-09T06:04:25.841Z,13.95
2023-02-09T06:06:52.948Z,11.63
2023-02-09T06:09:19.919Z,4.28
2023-02-09T06:11:47.232Z,13.95
2023-02-09T06:14:14.132Z,10.18
2023-02-09T06:16:41.205Z,8.98
2023-02-09T06:19:11.167Z,7.85
2023-02-09T06:21:37.930Z,9.10
2023-02-09T06:24:04.924Z,6.85
2023-02-09T06:26:31.622Z,13.68
2023-02-09T06:28:58.371Z,13.38
2023-02-09T06:31:25.237Z,13.23
2023-02-09T06:33:52.317Z,19.90
2023-02-09T06:36:19.163Z,14.65
2023-02-09T06:38:46.140Z,9.70
2023-02-09T06:41:13.009Z,10.75
2023-02-09T06:43:39.674Z,8.52
2023-02-09T06:46:08.381Z,9.23
2023-02-09T06:48:35.525Z,8.55
2023-02-09T06:51:02.417Z,8.88
2023-02-09T06:53:29.335Z,6.43
2023-02-09T06:56:01.499Z,14.77
2023-02-09T06:58:28.687Z,8.48
2023-02-09T07:00:55.426Z,8.98
2023-02-09T07:03:22.191Z,11.25
2023-02-09T07:05:49.019Z,8.10
2023-02-09T07:08:15.749Z,11.27
2023-02-09T07:10:43.625Z,12.07
2023-02-09T07:13:10.536Z,10.13
2023-02-09T07:15:41.768Z,8.95
2023-02-09T07:18:08.731Z,7.28
2023-02-09T07:20:35.877Z,7.75
2023-02-09T07:23:02.837Z,10.00
2023-02-09T07:25:29.634Z,9.32
2023-02-09T07:27:56.426Z,6.93
2023-02-09T07:30:23.234Z,5.82
2023-02-09T07:32:49.994Z,7.43
2023-02-09T07:35:16.912Z,6.32
2023-02-09T07:37:43.894Z,8.70
2023-02-09T07:40:11.114Z,13.75
2023-02-09T07:42:37.929Z,9.35
2023-02-09T07:45:05.724Z,5.43
2023-02-09T07:47:32.611Z,5.07
2023-02-09T07:49:59.371Z,11.95
2023-02-09T07:52:26.277Z,10.20
2023-02-09T07:54:53.079Z,6.40
2023-02-09T07:57:19.938Z,5.20
2023-02-09T07:59:46.793Z,6.95
2023-02-09T08:02:19.363Z,5.68
2023-02-09T08:04:46.450Z,7.22
2023-02-09T08:07:13.377Z,8.00
2023-02-09T08:09:42.821Z,10.52
2023-02-09T08:12:09.961Z,7.45
2023-02-09T08:14:48.414Z,8.05
2023-02-09T08:17:20.807Z,11.15
2023-02-09T08:20:10.141Z,7.47
2023-02-09T08:22:39.175Z,3.78
2023-02-09T08:25:06.438Z,6.47
2023-02-09T08:27:34.501Z,8.30
2023-02-09T08:30:01.558Z,8.35
2023-02-09T08:32:28.474Z,7.28
2023-02-09T08:34:55.373Z,7.05
2023-02-09T08:37:22.238Z,5.85
2023-02-09T08:39:49.019Z,2.65
2023-02-09T08:42:15.783Z,6.95
2023-02-09T08:44:42.621Z,4.90
2023-02-09T08:47:09.636Z,6.60
2023-02-09T08:49:36.607Z,4.75
2023-02-09T08:52:03.495Z,5.13
2023-02-09T08:54:30.460Z,5.57
2023-02-09T08:56:57.525Z,6.75
2023-02-09T08:59:24.375Z,6.22
2023-02-09T09:01:51.286Z,3.47
2023-02-09T09:04:18.190Z,6.82
2023-02-09T09:06:44.926Z,9.77
2023-02-09T09:09:11.812Z,8.07
2023-02-09T09:11:39.095Z,5.88
2023-02-09T09:14:06.136Z,4.88
2023-02-09T09:16:33.623Z,5.53
2023-02-09T09:19:00.523Z,5.78
2023-02-09T09:21:27.489Z,6.72
2023-02-09T09:23:54.613Z,6.00
2023-02-09T09:26:21.765Z,6.90
2023-02-09T09:28:52.074Z,7.88
2023-02-09T09:31:19.599Z,5.13
2023-02-09T09:33:46.937Z,4.03
2023-02-09T09:36:14.827Z,6.93
2023-02-09T09:38:42.755Z,3.90
2023-02-09T09:41:21.178Z,10.10
2023-02-09T09:43:48.320Z,6.20
2023-02-09T09:46:21.901Z,7.60
2023-02-09T09:48:56.346Z,6.07
2023-02-09T09:51:39.939Z,5.50
2023-02-09T09:54:13.517Z,5.80
2023-02-09T09:56:41.668Z,7.15
2023-02-09T09:59:18.433Z,11.65
2023-02-09T10:01:45.671Z,6.50
2023-02-09T10:04:14.612Z,8.73
2023-02-09T10:06:46.693Z,7.47
2023-02-09T10:09:31.631Z,6.20
2023-02-09T10:12:15.025Z,6.57
2023-02-09T10:14:41.810Z,8.43
2023-02-09T10:17:08.665Z,4.80
2023-02-09T10:19:35.514Z,5.28
2023-02-09T10:22:02.212Z,4.10
2023-02-09T10:24:32.066Z,8.48
2023-02-09T10:27:03.226Z,4.95
2023-02-09T10:29:30.185Z,4.70
2023-02-09T10:32:14.852Z,5.95
2023-02-09T10:34:44.638Z,6.95
2023-02-09T10:37:26.558Z,6.20
2023-02-09T10:40:06.041Z,4.30
2023-02-09T10:42:34.741Z,6.63
2023-02-09T10:50:11.552Z,6.10
2023-02-09T10:53:14.307Z,5.80
2023-02-09T10:55:42.755Z,4.88
2023-02-09T10:58:09.462Z,4.68
2023-02-09T11:00:42.252Z,5.90
2023-02-09T11:03:17.530Z,6.60
2023-02-09T11:05:46.874Z,5.53
2023-02-09T11:08:20.866Z,4.90
2023-02-09T11:11:02.735Z,6.70
2023-02-09T11:13:32.092Z,5.30
2023-02-09T11:16:21.155Z,6.80
2023-02-09T11:18:59.397Z,6.07
2023-02-09T11:21:50.817Z,6.15
2023-02-09T11:24:26.475Z,7.10
2023-02-09T11:27:03.680Z,4.35
2023-02-09T11:29:36.420Z,4.75
2023-02-09T11:32:05.323Z,6.80
2023-02-09T11:34:55.152Z,7.40
2023-02-09T11:37:40.084Z,4.78
2023-02-09T11:40:23.727Z,3.15
2023-02-09T11:42:56.492Z,4.15
2023-02-09T11:45:32.800Z,5.53
2023-02-09T11:48:17.883Z,5.25
2023-02-09T11:51:02.131Z,5.63
2023-02-09T11:53:31.886Z,4.00
2023-02-09T11:56:00.436Z,4.53
2023-02-09T11:58:46.377Z,4.88
2023-02-09T12:01:25.596Z,5.07
2023-02-09T12:04:01.645Z,4.63
2023-02-09T12:06:31.992Z,5.75
2023-02-09T12:09:09.087Z,4.43
2023-02-09T12:11:57.172Z,7.18
2023-02-09T12:14:56.479Z,5.07
2023-02-09T12:17:46.884Z,6.00
2023-02-09T12:20:29.432Z,6.68
2023-02-09T12:23:01.296Z,5.53
2023-02-09T12:25:51.402Z,5.22
2023-02-09T12:28:24.726Z,4.35
2023-02-09T12:30:51.479Z,3.47
2023-02-09T12:33:22.168Z,7.15
2023-02-09T12:36:10.542Z,4.25
2023-02-09T12:38:51.534Z,6.18
2023-02-09T12:41:25.685Z,5.45
2023-02-09T12:44:09.168Z,8.88
2023-02-09T12:46:44.957Z,5.57
2023-02-09T12:49:11.846Z,6.22
2023-02-09T12:51:47.602Z,6.85
2023-02-09T12:54:30.896Z,5.80
2023-02-09T12:57:16.402Z,5.28
2023-02-09T13:00:03.553Z,9.13
2023-02-09T13:02:55.161Z,5.30
2023-02-09T13:05:21.857Z,13.15
2023-02-09T13:08:15.827Z,11.73
2023-02-09T13:11:15.078Z,6.93
2023-02-09T13:13:49.632Z,8.85
2023-02-09T13:16:54.970Z,6.43
2023-02-09T13:19:45.859Z,6.65
2023-02-09T13:22:53.583Z,5.88
2023-02-09T13:25:32.965Z,4.55
2023-02-09T13:28:14.963Z,5.45
2023-02-09T13:30:41.862Z,4.25
2023-02-09T13:33:47.570Z,6.18
2023-02-09T13:36:25.086Z,4.75
2023-02-09T13:38:52.808Z,5.18
2023-02-09T13:41:40.882Z,8.07
2023-02-09T13:44:28.945Z,5.68
2023-02-09T13:46:57.987Z,8.65
2023-02-09T13:49:25.821Z,4.78
2023-02-09T13:52:15.953Z,6.60
2023-02-09T13:54:43.322Z,6.55
2023-02-09T13:57:12.635Z,4.93
2023-02-09T13:59:42.800Z,5.90
2023-02-09T14:02:18.865Z,5.47
2023-02-09T14:04:49.727Z,6.35
2023-02-09T14:07:17.252Z,5.28
2023-02-09T14:10:10.402Z,5.38
2023-02-09T14:13:00.788Z,5.00
2023-02-09T14:15:58.392Z,7.25
2023-02-09T14:18:32.782Z,5.28
2023-02-09T14:21:04.806Z,7.22
2023-02-09T14:23:35.059Z,6.40
2023-02-09T14:26:14.193Z,6.03
2023-02-09T14:28:49.656Z,5.60
2023-02-09T14:31:20.867Z,7.53
2023-02-09T14:33:49.440Z,6.18
2023-02-09T14:36:29.611Z,6.28
2023-02-09T14:39:17.139Z,7.60
2023-02-09T14:42:10.717Z,8.18
2023-02-09T14:45:15.909Z,6.70
2023-02-09T14:47:44.434Z,9.13
2023-02-09T14:50:12.711Z,9.52
2023-02-09T14:52:40.234Z,20.52
2023-02-09T14:55:14.413Z,10.68
2023-02-09T14:57:41.153Z,10.57
2023-02-09T15:00:23.408Z,8.77
2023-02-09T15:02:52.224Z,10.15
2023-02-09T15:05:20.708Z,10.23
2023-02-09T15:07:50.848Z,9.88
2023-02-09T15:10:30.120Z,9.15
2023-02-09T15:12:57.611Z,12.13
2023-02-09T15:15:25.502Z,9.40
2023-02-09T15:17:54.305Z,8.27
2023-02-09T15:20:25.188Z,9.55
2023-02-09T15:22:53.473Z,11.25
2023-02-09T15:25:20.793Z,9.38
2023-02-09T15:27:53.809Z,10.23
2023-02-09T15:30:26.785Z,18.55
2023-02-09T15:32:53.913Z,17.70
2023-02-09T15:35:23.370Z,12.43
2023-02-09T15:37:53.714Z,24.40
2023-02-09T15:41:01.701Z,26.17
2023-02-09T15:43:47.737Z,15.68
2023-02-09T15:46:37.614Z,26.40
2023-02-09T15:49:05.642Z,15.02
2023-02-09T15:51:34.970Z,16.70
2023-02-09T15:56:29.434Z,11.65
2023-02-09T15:59:03.444Z,16.17
2023-02-09T16:01:37.119Z,13.15
2023-02-09T16:04:13.804Z,10.60
2023-02-09T16:06:49.987Z,11.20
2023-02-09T16:09:19.692Z,16.13
2023-02-09T16:11:48.524Z,15.65
2023-02-09T16:14:20.758Z,10.75
2023-02-09T16:16:48.359Z,10.20
2023-02-09T16:19:15.339Z,14.65
2023-02-09T16:21:44.032Z,11.27
2023-02-09T16:24:30.150Z,11.73
2023-02-09T16:27:01.951Z,13.98
2023-02-09T16:29:29.074Z,11.23
2023-02-09T16:31:55.916Z,10.65
2023-02-09T16:34:22.778Z,15.95
2023-02-09T16:36:49.822Z,14.32
2023-02-09T16:39:19.403Z,10.45
2023-02-09T16:41:47.076Z,10.05
2023-02-09T16:44:20.492Z,9.18
2023-02-09T16:46:49.554Z,21.02
2023-02-09T16:49:29.792Z,14.35
2023-02-09T16:51:58.039Z,12.45
2023-02-09T16:54:24.855Z,10.63
2023-02-09T16:56:54.513Z,9.38
2023-02-09T16:59:22.004Z,8.85
2023-02-09T17:01:49.156Z,8.73
2023-02-09T17:04:16.021Z,11.00
2023-02-09T17:06:43.057Z,10.80
2023-02-09T17:09:14.593Z,9.70
2023-02-09T17:11:41.515Z,8.57
2023-02-09T17:14:08.370Z,20.80
2023-02-09T17:16:37.766Z,13.52
2023-02-09T17:21:35.370Z,14.93
2023-02-09T17:24:02.681Z,14.48
2023-02-09T17:26:29.432Z,12.02
2023-02-09T17:28:56.303Z,14.75
2023-02-09T17:31:43.721Z,15.25
2023-02-09T17:34:17.788Z,20.90
2023-02-09T17:36:45.078Z,17.15
2023-02-09T17:39:11.985Z,14.18
2023-02-09T17:41:44.710Z,16.08
2023-02-09T17:44:24.069Z,15.43
2023-02-09T17:46:56.124Z,10.15
2023-02-09T17:49:22.938Z,11.15
2023-02-09T17:51:49.776Z,16.65
2023-02-09T17:54:19.435Z,10.32
2023-02-09T17:56:46.751Z,14.70
2023-02-09T17:59:14.855Z,11.05
2023-02-09T18:01:45.816Z,22.20
2023-02-09T18:04:18.802Z,21.95
2023-02-09T18:06:45.681Z,30.13
2023-02-09T18:09:13.453Z,17.90
2023-02-09T18:11:52.377Z,18.27
2023-02-09T18:14:20.746Z,17.20
2023-02-09T18:16:48.305Z,20.52
2023-02-09T18:19:16.118Z,27.95
2023-02-09T18:21:54.346Z,42.35
2023-02-09T18:24:22.927Z,53.15
2023-02-09T18:26:52.352Z,40.97
2023-02-09T18:29:20.366Z,35.95
2023-02-09T18:31:47.118Z,36.30
2023-02-09T18:34:15.254Z,38.33
2023-02-09T18:36:42.460Z,34.92
2023-02-09T18:39:09.406Z,25.70
2023-02-09T18:41:36.095Z,21.50
2023-02-09T18:44:02.900Z,26.85
2023-02-09T18:46:29.811Z,18.52
2023-02-09T18:48:56.630Z,16.52
2023-02-09T18:51:23.766Z,14.45
2023-02-09T18:53:51.245Z,14.50
2023-02-09T18:56:22.351Z,20.38
2023-02-09T18:58:52.689Z,14.18
2023-02-09T19:01:21.052Z,17.63
2023-02-09T19:03:52.144Z,18.52
2023-02-09T19:06:20.560Z,19.23
2023-02-09T19:08:50.447Z,12.02
2023-02-09T19:11:19.495Z,17.65
2023-02-09T19:14:05.132Z,17.13
2023-02-09T19:16:31.896Z,14.23
2023-02-09T19:18:59.466Z,18.92
2023-02-09T19:21:27.203Z,15.30
2023-02-09T19:23:56.763Z,16.20
2023-02-09T19:28:50.168Z,17.40
2023-02-09T19:31:17.780Z,15.70
2023-02-09T19:33:44.637Z,26.00
2023-02-09T19:36:11.508Z,22.55
2023-02-09T19:38:38.258Z,25.50
2023-02-09T19:41:12.407Z,24.95
2023-02-09T19:43:42.190Z,28.13
2023-02-09T19:46:10.389Z,30.40
2023-02-09T19:48:40.586Z,22.88
2023-02-09T19:51:08.048Z,22.75
2023-02-09T19:53:35.255Z,24.58
2023-02-09T19:56:02.249Z,26.08
2023-02-09T19:58:29.111Z,24.17
2023-02-09T20:00:56.198Z,19.95
2023-02-09T20:03:24.085Z,17.25
2023-02-09T20:05:51.324Z,19.73
2023-02-09T20:08:19.120Z,20.05
2023-02-09T20:10:46.352Z,20.20
2023-02-09T20:13:13.660Z,15.65
2023-02-09T20:15:43.896Z,18.23
2023-02-09T20:18:13.531Z,20.98
2023-02-09T20:20:43.274Z,18.75
2023-02-09T20:23:10.531Z,21.60
2023-02-09T20:25:40.773Z,24.40
2023-02-09T20:28:08.023Z,25.25
2023-02-09T20:30:35.241Z,27.70
2023-02-09T20:33:02.069Z,27.25
2023-02-09T20:35:28.933Z,33.75
2023-02-09T20:37:55.715Z,19.67
2023-02-09T20:40:22.783Z,25.30
2023-02-09T20:43:08.446Z,23.23
2023-02-09T20:45:53.818Z,33.53
2023-02-09T20:48:20.602Z,13.40
2023-02-09T20:50:47.960Z,12.68
2023-02-09T20:53:15.007Z,8.65
2023-02-09T20:55:42.916Z,13.52
2023-02-09T20:58:11.897Z,15.88
2023-02-09T21:00:39.552Z,22.15
2023-02-09T21:03:07.458Z,19.50
2023-02-09T21:05:35.153Z,15.68
2023-02-09T21:08:04.421Z,19.75
2023-02-09T21:10:35.785Z,18.35
2023-02-09T21:13:04.821Z,16.73
2023-02-09T21:15:31.715Z,13.38
2023-02-09T21:17:58.457Z,10.68
2023-02-09T21:20:25.320Z,13.52
2023-02-09T21:22:52.089Z,10.25
2023-02-09T21:25:19.453Z,17.90
2023-02-09T21:27:46.336Z,16.88
2023-02-09T21:30:13.412Z,16.80
2023-02-09T21:32:40.110Z,16.38
2023-02-09T21:35:10.396Z,14.10
2023-02-09T21:37:38.934Z,13.05
2023-02-09T21:40:06.854Z,42.28
2023-02-09T21:42:35.599Z,18.42
2023-02-09T21:45:02.651Z,26.35
2023-02-09T21:47:34.359Z,29.50
2023-02-09T21:50:01.054Z,30.88
2023-02-09T21:52:29.930Z,23.15
2023-02-09T21:54:56.687Z,13.07
2023-02-09T21:57:23.843Z,5.93
2023-02-09T21:59:50.653Z,15.48
2023-02-09T22:02:18.142Z,17.77
2023-02-09T22:04:45.662Z,8.02
2023-02-09T22:07:13.742Z,11.05
2023-02-09T22:09:40.750Z,8.52
2023-02-09T22:12:07.783Z,13.93
2023-02-09T22:14:34.635Z,20.90
2023-02-09T22:17:01.492Z,20.48
2023-02-09T22:19:28.198Z,17.60
2023-02-09T22:21:57.750Z,8.85
2023-02-09T22:24:24.954Z,10.90
2023-02-09T22:26:51.700Z,10.70
2023-02-09T22:29:18.488Z,11.68
2023-02-09T22:31:45.373Z,11.30
2023-02-09T22:34:12.662Z,14.95
2023-02-09T22:36:39.901Z,11.63
2023-02-09T22:39:07.170Z,12.27
2023-02-09T22:41:34.193Z,13.95
2023-02-09T22:44:09.720Z,6.90
2023-02-09T22:46:39.231Z,10.63
2023-02-09T22:49:12.446Z,12.23
2023-02-09T22:51:39.485Z,11.00
2023-02-09T22:54:06.450Z,9.95
2023-02-09T22:56:33.360Z,9.45
2023-02-09T22:59:02.690Z,6.18
2023-02-09T23:01:30.016Z,6.22
2023-02-09T23:03:57.199Z,5.30
2023-02-09T23:06:27.314Z,14.88
2023-02-09T23:08:56.486Z,10.73
2023-02-09T23:11:23.344Z,11.30
2023-02-09T23:14:00.458Z,9.25
2023-02-09T23:16:34.008Z,8.15
2023-02-09T23:19:03.325Z,6.88
2023-02-09T23:21:32.895Z,5.30
2023-02-09T23:26:26.430Z,9.60
2023-02-09T23:28:57.030Z,11.70
2023-02-09T23:31:24.445Z,16.90
2023-02-09T23:33:51.577Z,19.73
2023-02-09T23:36:20.950Z,19.92
2023-02-09T23:38:48.066Z,8.57
2023-02-09T23:41:17.115Z,4.63
2023-02-09T23:43:43.994Z,7.63
2023-02-09T23:46:13.208Z,5.25
2023-02-09T23:48:40.240Z,26.75
2023-02-09T23:51:12.393Z,20.75
2023-02-09T23:53:39.409Z,26.42
2023-02-09T23:56:06.787Z,17.50
2023-02-09T23:58:38.872Z,19.90
